createdAt,value
2022-09-17T00:01:19.844Z,15.48
2022-09-17T00:04:18.534Z,22.38
2022-09-17T00:07:17.407Z,19.33
2022-09-17T00:10:15.926Z,16.92
2022-09-17T00:13:14.679Z,18.25
2022-09-17T00:16:13.720Z,14.95
2022-09-17T00:19:23.532Z,21.63
2022-09-17T00:22:22.267Z,14.45
2022-09-17T00:25:21.831Z,19.50
2022-09-17T00:28:20.334Z,20.85
2022-09-17T00:31:19.340Z,19.58
2022-09-17T00:34:17.965Z,14.45
2022-09-17T00:37:17.045Z,17.52
2022-09-17T00:40:15.490Z,25.05
2022-09-17T00:43:14.229Z,7.95
2022-09-17T00:46:43.375Z,17.40
2022-09-17T00:49:43.261Z,21.38
2022-09-17T00:52:47.156Z,20.33
2022-09-17T00:55:54.480Z,16.52
2022-09-17T00:58:54.173Z,19.35
2022-09-17T01:01:53.382Z,16.25
2022-09-17T01:04:51.978Z,17.02
2022-09-17T01:08:09.691Z,27.25
2022-09-17T01:11:25.815Z,26.48
2022-09-17T01:14:46.908Z,22.20
2022-09-17T01:18:00.298Z,13.10
2022-09-17T01:21:31.222Z,22.00
2022-09-17T01:24:48.506Z,27.85
2022-09-17T01:28:15.039Z,13.57
2022-09-17T01:31:39.556Z,17.77
2022-09-17T01:34:50.692Z,17.15
2022-09-17T01:38:10.434Z,20.75
2022-09-17T01:41:21.365Z,15.35
2022-09-17T01:44:32.150Z,22.15
2022-09-17T01:47:36.883Z,17.42
2022-09-17T01:50:43.733Z,21.90
2022-09-17T01:53:49.260Z,19.70
2022-09-17T01:56:53.949Z,19.70
2022-09-17T02:00:00.046Z,18.85
2022-09-17T02:03:07.673Z,13.48
2022-09-17T02:06:11.604Z,22.08
2022-09-17T02:09:29.275Z,24.05
2022-09-17T02:12:34.871Z,27.05
2022-09-17T02:15:38.632Z,20.20
2022-09-17T02:19:01.465Z,28.48
2022-09-17T02:22:07.423Z,17.30
2022-09-17T02:25:27.805Z,22.20
2022-09-17T02:28:51.637Z,14.65
2022-09-17T02:31:50.351Z,25.35
2022-09-17T02:34:48.876Z,26.55
2022-09-17T02:37:50.618Z,18.63
2022-09-17T02:40:55.644Z,22.85
2022-09-17T02:44:10.059Z,18.25
2022-09-17T02:47:33.824Z,13.00
2022-09-17T02:50:58.829Z,17.30
2022-09-17T02:54:19.261Z,28.08
2022-09-17T02:57:28.439Z,12.70
2022-09-17T03:00:29.108Z,12.00
2022-09-17T03:03:34.235Z,15.60
2022-09-17T03:06:32.869Z,23.45
2022-09-17T03:09:31.494Z,11.85
2022-09-17T03:12:30.615Z,13.88
2022-09-17T03:15:29.382Z,18.90
2022-09-17T03:18:27.686Z,18.38
2022-09-17T03:21:27.027Z,21.08
2022-09-17T03:24:25.719Z,20.58
2022-09-17T03:27:24.387Z,32.78
2022-09-17T03:30:22.694Z,31.73
2022-09-17T03:33:21.445Z,35.13
2022-09-17T03:36:19.727Z,30.40
2022-09-17T03:39:18.418Z,44.10
2022-09-17T03:42:16.857Z,33.25
2022-09-17T03:45:19.827Z,38.20
2022-09-17T03:48:21.395Z,19.98
2022-09-17T03:51:20.014Z,23.73
2022-09-17T03:54:18.447Z,29.45
2022-09-17T03:57:17.440Z,25.85
2022-09-17T04:00:17.921Z,24.17
2022-09-17T04:03:16.564Z,43.95
2022-09-17T04:06:15.095Z,37.60
2022-09-17T04:09:14.099Z,30.30
2022-09-17T04:12:12.779Z,33.92
2022-09-17T04:15:14.733Z,35.95
2022-09-17T04:18:13.483Z,45.65
2022-09-17T04:21:12.568Z,36.65
2022-09-17T04:24:11.259Z,40.72
2022-09-17T04:27:10.063Z,34.15
2022-09-17T04:30:08.783Z,39.22
2022-09-17T04:33:07.743Z,26.67
2022-09-17T04:36:06.090Z,36.60
2022-09-17T04:39:04.822Z,27.60
2022-09-17T04:42:03.137Z,41.10
2022-09-17T04:45:01.828Z,38.10
2022-09-17T04:48:03.217Z,38.90
2022-09-17T04:51:02.665Z,30.00
2022-09-17T04:54:01.048Z,30.45
2022-09-17T04:57:00.761Z,31.45
2022-09-17T04:59:59.052Z,43.53
2022-09-17T05:02:58.098Z,30.33
2022-09-17T05:05:57.082Z,23.40
2022-09-17T05:08:55.937Z,40.38
2022-09-17T05:11:54.401Z,34.83
2022-09-17T05:14:53.028Z,45.28
2022-09-17T05:17:51.729Z,26.90
2022-09-17T05:20:50.459Z,41.63
2022-09-17T05:23:48.798Z,36.38
2022-09-17T05:26:47.518Z,31.27
2022-09-17T05:29:45.990Z,47.78
2022-09-17T05:32:44.531Z,29.00
2022-09-17T05:35:45.165Z,31.25
2022-09-17T05:38:46.192Z,28.65
2022-09-17T05:41:44.858Z,35.53
2022-09-17T05:44:43.457Z,28.10
2022-09-17T05:47:41.725Z,23.60
2022-09-17T05:50:40.779Z,34.10
2022-09-17T05:53:39.295Z,33.42
2022-09-17T05:56:38.234Z,31.23
2022-09-17T05:59:36.806Z,28.48
2022-09-17T06:02:35.483Z,28.85
2022-09-17T06:05:34.199Z,32.22
2022-09-17T06:08:37.494Z,24.15
2022-09-17T06:11:36.814Z,31.63
2022-09-17T06:14:38.430Z,33.83
2022-09-17T06:17:39.152Z,41.13
2022-09-17T06:20:41.738Z,33.72
2022-09-17T06:23:40.241Z,27.42
2022-09-17T06:26:39.857Z,27.85
2022-09-17T06:29:38.386Z,50.30
2022-09-17T06:32:37.139Z,34.30
2022-09-17T06:35:35.683Z,27.33
2022-09-17T06:38:36.847Z,35.30
2022-09-17T06:41:37.785Z,41.72
2022-09-17T06:44:36.467Z,31.67
2022-09-17T06:47:35.120Z,32.40
2022-09-17T06:50:33.848Z,36.90
2022-09-17T06:53:32.667Z,29.63
2022-09-17T06:56:31.515Z,39.90
2022-09-17T06:59:30.121Z,31.27
2022-09-17T07:02:29.162Z,44.95
2022-09-17T07:05:30.076Z,31.30
2022-09-17T07:08:28.744Z,31.90
2022-09-17T07:11:27.315Z,29.13
2022-09-17T07:14:26.098Z,32.75
2022-09-17T07:17:24.675Z,31.85
2022-09-17T07:20:23.549Z,38.67
2022-09-17T07:23:24.398Z,26.50
2022-09-17T07:26:23.440Z,35.72
2022-09-17T07:29:23.867Z,35.38
2022-09-17T07:32:23.122Z,34.35
2022-09-17T07:35:21.650Z,31.42
2022-09-17T07:38:20.658Z,31.15
2022-09-17T07:41:19.558Z,35.00
2022-09-17T07:44:19.069Z,40.30
2022-09-17T07:47:17.902Z,42.55
2022-09-17T07:50:17.146Z,31.75
2022-09-17T07:53:16.039Z,36.13
2022-09-17T07:56:15.574Z,33.28
2022-09-17T07:59:14.016Z,31.77
2022-09-17T08:02:14.768Z,36.72
2022-09-17T08:05:13.469Z,32.60
2022-09-17T08:08:21.157Z,32.92
2022-09-17T08:14:39.759Z,38.97
2022-09-17T08:17:38.602Z,31.27
2022-09-17T08:20:37.421Z,41.72
2022-09-17T08:23:37.545Z,30.55
2022-09-17T08:26:36.497Z,32.53
2022-09-17T08:29:35.446Z,52.70
2022-09-17T08:32:34.545Z,33.72
2022-09-17T08:35:32.885Z,37.20
2022-09-17T08:38:37.786Z,39.03
2022-09-17T08:41:58.166Z,44.42
2022-09-17T08:45:00.664Z,30.92
2022-09-17T08:48:05.716Z,36.70
2022-09-17T08:51:26.364Z,27.77
2022-09-17T08:54:47.373Z,29.38
2022-09-17T08:58:16.459Z,34.15
2022-09-17T09:01:26.434Z,39.40
2022-09-17T09:04:50.790Z,34.75
2022-09-17T09:07:55.102Z,45.40
2022-09-17T09:10:57.144Z,31.35
2022-09-17T09:14:06.642Z,35.50
2022-09-17T09:17:10.634Z,24.20
2022-09-17T09:20:21.139Z,35.25
2022-09-17T09:23:28.001Z,31.08
2022-09-17T09:26:46.022Z,30.63
2022-09-17T09:30:04.525Z,33.42
2022-09-17T09:33:14.680Z,23.77
2022-09-17T09:36:16.076Z,30.90
2022-09-17T09:39:41.317Z,19.50
2022-09-17T09:42:41.654Z,31.63
2022-09-17T09:45:50.922Z,20.02
2022-09-17T09:49:07.594Z,35.67
2022-09-17T09:52:20.321Z,27.25
2022-09-17T09:55:42.901Z,32.13
2022-09-17T09:58:42.411Z,28.48
2022-09-17T10:01:43.305Z,24.13
2022-09-17T10:04:41.781Z,29.42
2022-09-17T10:07:48.105Z,32.35
2022-09-17T10:11:03.270Z,29.95
2022-09-17T10:14:26.998Z,23.00
2022-09-17T10:17:27.566Z,24.63
2022-09-17T10:20:27.775Z,24.88
2022-09-17T10:23:29.512Z,33.58
2022-09-17T10:26:37.302Z,32.35
2022-09-17T10:29:36.187Z,29.17
2022-09-17T10:32:35.127Z,34.95
2022-09-17T10:35:34.459Z,33.53
2022-09-17T10:38:36.470Z,31.52
2022-09-17T10:41:34.981Z,26.08
2022-09-17T10:44:37.300Z,27.73
2022-09-17T10:47:43.248Z,23.02
2022-09-17T10:50:42.293Z,20.52
2022-09-17T10:54:06.934Z,21.17
2022-09-17T10:57:09.389Z,21.65
2022-09-17T11:00:24.067Z,16.13
2022-09-17T11:03:58.054Z,40.10
2022-09-17T11:07:12.242Z,28.25
2022-09-17T11:10:31.561Z,23.98
2022-09-17T11:13:46.580Z,20.60
2022-09-17T11:17:01.052Z,29.65
2022-09-17T11:20:06.622Z,20.75
2022-09-17T11:23:31.872Z,29.48
2022-09-17T11:26:45.662Z,26.30
2022-09-17T11:30:03.073Z,17.38
2022-09-17T11:33:20.593Z,23.40
2022-09-17T11:36:23.443Z,20.65
2022-09-17T11:39:29.381Z,31.13
2022-09-17T11:42:37.612Z,31.40
2022-09-17T11:46:10.147Z,30.70
2022-09-17T11:49:24.577Z,25.75
2022-09-17T11:52:35.728Z,31.00
2022-09-17T11:55:52.600Z,23.75
2022-09-17T11:59:05.722Z,33.47
2022-09-17T12:02:42.619Z,38.90
2022-09-17T12:05:54.436Z,45.47
2022-09-17T12:09:15.824Z,57.08
2022-09-17T12:12:44.980Z,27.98
2022-09-17T12:15:43.825Z,48.05
2022-09-17T12:18:53.705Z,41.00
2022-09-17T12:21:59.078Z,37.55
2022-09-17T12:24:58.378Z,37.88
2022-09-17T12:28:06.080Z,43.40
2022-09-17T12:31:18.192Z,49.67
2022-09-17T12:34:31.064Z,29.52
2022-09-17T12:37:57.092Z,32.05
2022-09-17T12:41:11.281Z,35.30
2022-09-17T12:44:33.483Z,33.70
2022-09-17T12:48:00.419Z,40.78
2022-09-17T12:51:34.429Z,38.55
2022-09-17T12:54:57.355Z,40.72
2022-09-17T12:58:19.983Z,40.38
2022-09-17T13:01:35.110Z,33.05
2022-09-17T13:05:05.956Z,37.53
2022-09-17T13:08:35.340Z,28.48
2022-09-17T13:11:55.260Z,31.35
2022-09-17T13:15:27.138Z,29.38
2022-09-17T13:19:17.245Z,32.13
2022-09-17T13:22:20.729Z,27.10
2022-09-17T13:25:21.335Z,29.00
2022-09-17T13:28:20.375Z,27.50
2022-09-17T13:31:44.937Z,20.88
2022-09-17T13:34:43.722Z,26.50
2022-09-17T13:37:45.032Z,19.05
2022-09-17T13:40:43.855Z,21.17
2022-09-17T13:43:47.246Z,31.35
2022-09-17T13:46:48.246Z,27.80
2022-09-17T13:49:55.112Z,24.63
2022-09-17T13:52:56.854Z,24.42
2022-09-17T13:55:59.158Z,22.75
2022-09-17T13:59:08.983Z,26.65
2022-09-17T14:02:31.064Z,34.80
2022-09-17T14:05:35.731Z,27.73
2022-09-17T14:08:50.672Z,31.70
2022-09-17T14:11:49.365Z,35.13
2022-09-17T14:14:52.596Z,24.23
2022-09-17T14:17:52.962Z,26.95
2022-09-17T14:20:54.089Z,23.02
2022-09-17T14:23:58.061Z,25.42
2022-09-17T14:27:11.886Z,33.05
2022-09-17T14:30:41.188Z,34.10
2022-09-17T14:33:41.038Z,21.70
2022-09-17T14:36:50.597Z,32.90
2022-09-17T14:39:50.196Z,25.55
2022-09-17T14:42:52.857Z,28.80
2022-09-17T14:45:53.818Z,26.05
2022-09-17T14:48:52.894Z,26.17
2022-09-17T14:51:53.847Z,23.35
2022-09-17T14:55:24.430Z,25.52
2022-09-17T14:58:39.769Z,33.85
2022-09-17T15:01:38.965Z,28.27
2022-09-17T15:04:37.518Z,26.17
2022-09-17T15:07:36.265Z,19.08
2022-09-17T15:10:39.849Z,18.42
2022-09-17T15:13:51.806Z,18.42
2022-09-17T15:16:53.508Z,20.42
2022-09-17T15:20:33.592Z,27.17
2022-09-17T15:23:36.633Z,12.63
2022-09-17T15:26:40.921Z,24.92
2022-09-17T15:29:43.401Z,20.92
2022-09-17T15:32:48.934Z,24.92
2022-09-17T15:36:08.538Z,17.65
2022-09-17T15:39:30.876Z,19.27
2022-09-17T15:42:31.797Z,12.88
2022-09-17T15:45:33.887Z,18.73
2022-09-17T15:48:40.045Z,13.10
2022-09-17T15:51:38.727Z,22.00
2022-09-17T15:54:38.688Z,18.75
2022-09-17T15:57:37.444Z,22.70
2022-09-17T16:00:36.065Z,19.98
2022-09-17T16:04:09.949Z,22.27
2022-09-17T16:07:28.476Z,28.85
2022-09-17T16:10:29.980Z,17.05
2022-09-17T16:13:28.836Z,19.73
2022-09-17T16:16:39.988Z,20.83
2022-09-17T16:19:39.126Z,19.75
2022-09-17T16:22:38.451Z,16.80
2022-09-17T16:25:39.196Z,17.92
2022-09-17T16:28:37.966Z,27.52
2022-09-17T16:31:36.598Z,32.00
2022-09-17T16:34:35.406Z,18.15
2022-09-17T16:37:33.774Z,19.95
2022-09-17T16:40:32.669Z,18.40
2022-09-17T16:43:31.325Z,19.83
2022-09-17T16:46:30.002Z,24.60
2022-09-17T16:49:28.375Z,21.42
2022-09-17T16:52:27.002Z,19.02
2022-09-17T16:55:43.677Z,18.70
2022-09-17T16:58:42.572Z,23.40
2022-09-17T17:01:41.322Z,27.48
2022-09-17T17:04:42.019Z,19.10
2022-09-17T17:07:40.356Z,23.95
2022-09-17T17:10:39.846Z,21.52
2022-09-17T17:13:38.177Z,18.58
2022-09-17T17:16:37.160Z,22.10
2022-09-17T17:19:36.523Z,19.88
2022-09-17T17:22:35.362Z,20.33
2022-09-17T17:25:33.859Z,26.60
2022-09-17T17:28:34.058Z,22.35
2022-09-17T17:31:32.807Z,21.98
2022-09-17T17:34:32.039Z,23.80
2022-09-17T17:37:30.711Z,16.35
2022-09-17T17:40:30.121Z,17.48
2022-09-17T17:43:28.929Z,22.25
2022-09-17T17:46:28.034Z,23.45
2022-09-17T17:49:26.815Z,18.98
2022-09-17T17:52:25.695Z,18.02
2022-09-17T17:55:24.259Z,22.88
2022-09-17T17:58:23.008Z,17.27
2022-09-17T18:01:24.161Z,19.15
2022-09-17T18:04:23.168Z,26.67
2022-09-17T18:07:21.520Z,32.17
2022-09-17T18:10:34.209Z,31.40
2022-09-17T18:13:37.201Z,27.80
2022-09-17T18:16:35.929Z,23.52
2022-09-17T18:19:34.651Z,17.25
2022-09-17T18:22:33.475Z,28.00
2022-09-17T18:25:31.912Z,22.98
2022-09-17T18:28:31.571Z,20.77
2022-09-17T18:31:32.303Z,19.88
2022-09-17T18:34:31.133Z,18.90
2022-09-17T18:37:29.987Z,20.27
2022-09-17T18:40:28.690Z,14.90
2022-09-17T18:43:27.557Z,12.60
2022-09-17T18:46:26.958Z,24.05
2022-09-17T18:49:25.290Z,17.83
2022-09-17T18:52:24.055Z,15.93
2022-09-17T18:55:22.427Z,12.30
2022-09-17T18:58:21.125Z,14.35
2022-09-17T19:01:22.227Z,16.20
2022-09-17T19:04:20.962Z,12.82
2022-09-17T19:08:31.141Z,14.52
2022-09-17T19:11:30.892Z,14.82
2022-09-17T19:14:29.425Z,16.80
2022-09-17T19:17:29.307Z,11.38
2022-09-17T19:20:29.881Z,20.42
2022-09-17T19:23:34.039Z,13.85
2022-09-17T19:26:32.638Z,27.10
2022-09-17T19:29:31.504Z,24.73
2022-09-17T19:32:30.044Z,24.48
2022-09-17T19:35:28.843Z,19.80
2022-09-17T19:38:27.571Z,17.45
2022-09-17T19:41:26.406Z,16.27
2022-09-17T19:44:28.237Z,19.10
2022-09-17T19:47:27.312Z,12.88
2022-09-17T19:50:25.607Z,13.77
2022-09-17T19:53:24.694Z,15.63
2022-09-17T19:56:25.638Z,14.55
2022-09-17T19:59:27.700Z,11.02
2022-09-17T20:02:26.401Z,15.38
2022-09-17T20:05:25.109Z,13.27
2022-09-17T20:08:23.632Z,14.45
2022-09-17T20:11:24.565Z,14.20
2022-09-17T20:14:23.219Z,19.88
2022-09-17T20:17:22.503Z,14.88
2022-09-17T20:20:29.070Z,14.88
2022-09-17T20:23:32.374Z,15.75
2022-09-17T20:26:30.822Z,17.52
2022-09-17T20:29:29.399Z,16.38
2022-09-17T20:32:28.449Z,16.52
2022-09-17T20:35:27.023Z,13.40
2022-09-17T20:41:44.347Z,16.15
2022-09-17T20:44:42.938Z,15.07
2022-09-17T20:47:42.455Z,13.57
2022-09-17T20:50:40.994Z,17.38
2022-09-17T20:54:00.554Z,12.07
2022-09-17T20:56:58.852Z,21.30
2022-09-17T21:00:01.032Z,13.13
2022-09-17T21:02:59.576Z,19.58
2022-09-17T21:05:58.368Z,12.65
2022-09-17T21:08:57.373Z,16.90
2022-09-17T21:11:56.649Z,20.40
2022-09-17T21:14:55.020Z,15.50
2022-09-17T21:17:53.796Z,8.65
2022-09-17T21:20:52.475Z,17.75
2022-09-17T21:23:51.366Z,13.80
2022-09-17T21:26:51.866Z,18.63
2022-09-17T21:29:50.650Z,21.67
2022-09-17T21:32:53.703Z,10.38
2022-09-17T21:35:52.386Z,19.00
2022-09-17T21:38:53.018Z,14.95
2022-09-17T21:41:52.741Z,18.00
2022-09-17T21:44:51.127Z,11.93
2022-09-17T21:47:50.159Z,17.73
2022-09-17T21:50:48.729Z,19.58
2022-09-17T21:53:52.246Z,13.77
2022-09-17T21:56:50.854Z,12.98
2022-09-17T21:59:49.583Z,17.05
2022-09-17T22:02:51.746Z,9.20
2022-09-17T22:05:50.355Z,18.65
2022-09-17T22:08:49.791Z,14.60
2022-09-17T22:11:49.064Z,11.50
2022-09-17T22:14:47.396Z,14.73
2022-09-17T22:17:45.977Z,14.55
2022-09-17T22:20:44.537Z,16.88
2022-09-17T22:23:43.881Z,11.85
2022-09-17T22:26:44.607Z,12.45
2022-09-17T22:29:43.191Z,17.30
2022-09-17T22:32:41.469Z,13.95
2022-09-17T22:35:40.267Z,13.80
2022-09-17T22:38:39.185Z,16.10
2022-09-17T22:41:44.715Z,14.20
2022-09-17T22:44:43.143Z,17.60
2022-09-17T22:47:41.988Z,21.75
2022-09-17T22:50:40.516Z,16.75
2022-09-17T22:53:40.620Z,11.95
2022-09-17T22:56:39.191Z,23.42
2022-09-17T22:59:38.534Z,13.45
2022-09-17T23:02:37.642Z,16.05
2022-09-17T23:05:36.483Z,18.25
2022-09-17T23:08:35.906Z,15.60
2022-09-17T23:11:37.361Z,14.23
2022-09-17T23:14:35.952Z,15.18
2022-09-17T23:17:36.277Z,15.35
2022-09-17T23:20:35.035Z,13.10
2022-09-17T23:23:35.575Z,17.52
2022-09-17T23:26:34.422Z,16.48
2022-09-17T23:29:33.310Z,13.70
2022-09-17T23:32:31.956Z,13.57
2022-09-17T23:35:30.758Z,17.15
2022-09-17T23:38:30.724Z,12.38
2022-09-17T23:41:33.862Z,10.57
2022-09-17T23:44:32.163Z,10.23
2022-09-17T23:47:31.430Z,11.85
2022-09-17T23:50:30.083Z,20.83
2022-09-17T23:53:30.985Z,13.90
2022-09-17T23:56:29.569Z,15.30
2022-09-17T23:59:28.158Z,12.38
